sensor_id;sensor_type;location;lat;lon;timestamp;P1;durP1;ratioP1;P2;durP2;ratioP2
62543;SDS011;48597;49.030;1.822;2023-05-19T00:00:16;3.47;;;2.00;;
62543;SDS011;48597;49.030;1.822;2023-05-19T00:02:42;2.83;;;1.80;;
62543;SDS011;48597;49.030;1.822;2023-05-19T00:05:09;2.45;;;2.03;;
62543;SDS011;48597;49.030;1.822;2023-05-19T00:07:36;3.13;;;2.10;;
62543;SDS011;48597;49.030;1.822;2023-05-19T00:10:03;2.65;;;1.95;;
62543;SDS011;48597;49.030;1.822;2023-05-19T00:12:29;1.70;;;1.58;;
62543;SDS011;48597;49.030;1.822;2023-05-19T00:14:55;2.42;;;1.77;;
62543;SDS011;48597;49.030;1.822;2023-05-19T00:17:21;2.58;;;1.90;;
62543;SDS011;48597;49.030;1.822;2023-05-19T00:19:47;2.00;;;1.80;;
62543;SDS011;48597;49.030;1.822;2023-05-19T00:22:13;2.53;;;2.00;;
62543;SDS011;48597;49.030;1.822;2023-05-19T00:24:39;2.67;;;1.80;;
62543;SDS011;48597;49.030;1.822;2023-05-19T00:27:04;2.58;;;1.80;;
62543;SDS011;48597;49.030;1.822;2023-05-19T00:29:29;2.28;;;1.80;;
62543;SDS011;48597;49.030;1.822;2023-05-19T00:31:55;2.17;;;1.70;;
62543;SDS011;48597;49.030;1.822;2023-05-19T00:34:20;1.67;;;1.48;;
62543;SDS011;48597;49.030;1.822;2023-05-19T00:36:45;2.13;;;1.52;;
62543;SDS011;48597;49.030;1.822;2023-05-19T00:39:11;2.83;;;1.70;;
62543;SDS011;48597;49.030;1.822;2023-05-19T00:41:36;2.40;;;1.80;;
62543;SDS011;48597;49.030;1.822;2023-05-19T00:44:01;1.85;;;1.60;;
62543;SDS011;48597;49.030;1.822;2023-05-19T00:46:27;3.55;;;1.77;;
62543;SDS011;48597;49.030;1.822;2023-05-19T00:48:54;2.67;;;1.83;;
62543;SDS011;48597;49.030;1.822;2023-05-19T00:51:19;2.42;;;2.00;;
62543;SDS011;48597;49.030;1.822;2023-05-19T00:53:46;2.90;;;1.83;;
62543;SDS011;48597;49.030;1.822;2023-05-19T00:56:15;2.53;;;1.67;;
62543;SDS011;48597;49.030;1.822;2023-05-19T00:58:41;3.15;;;1.83;;
62543;SDS011;48597;49.030;1.822;2023-05-19T01:01:06;2.58;;;1.90;;
62543;SDS011;48597;49.030;1.822;2023-05-19T01:03:32;2.58;;;1.90;;
62543;SDS011;48597;49.030;1.822;2023-05-19T01:05:59;2.78;;;1.67;;
62543;SDS011;48597;49.030;1.822;2023-05-19T01:08:35;2.60;;;1.77;;
62543;SDS011;48597;49.030;1.822;2023-05-19T01:11:03;4.03;;;1.85;;
62543;SDS011;48597;49.030;1.822;2023-05-19T01:13:29;2.25;;;1.70;;
62543;SDS011;48597;49.030;1.822;2023-05-19T01:16:06;2.20;;;1.73;;
62543;SDS011;48597;49.030;1.822;2023-05-19T01:18:49;2.07;;;1.60;;
62543;SDS011;48597;49.030;1.822;2023-05-19T01:24:50;4.50;;;2.00;;
62543;SDS011;48597;49.030;1.822;2023-05-19T01:27:53;2.88;;;1.80;;
62543;SDS011;48597;49.030;1.822;2023-05-19T01:30:44;1.73;;;1.42;;
62543;SDS011;48597;49.030;1.822;2023-05-19T01:33:13;1.92;;;1.50;;
62543;SDS011;48597;49.030;1.822;2023-05-19T01:35:39;3.22;;;1.70;;
62543;SDS011;48597;49.030;1.822;2023-05-19T01:38:07;2.85;;;1.55;;
62543;SDS011;48597;49.030;1.822;2023-05-19T01:40:34;2.17;;;1.67;;
62543;SDS011;48597;49.030;1.822;2023-05-19T01:43:02;2.50;;;1.70;;
62543;SDS011;48597;49.030;1.822;2023-05-19T01:45:29;1.98;;;1.58;;
62543;SDS011;48597;49.030;1.822;2023-05-19T01:47:57;2.45;;;1.73;;
62543;SDS011;48597;49.030;1.822;2023-05-19T01:50:25;2.80;;;1.70;;
62543;SDS011;48597;49.030;1.822;2023-05-19T01:52:51;3.45;;;1.98;;
62543;SDS011;48597;49.030;1.822;2023-05-19T01:55:16;2.10;;;1.70;;
62543;SDS011;48597;49.030;1.822;2023-05-19T01:57:46;2.80;;;1.45;;
62543;SDS011;48597;49.030;1.822;2023-05-19T02:06:29;3.00;;;1.70;;
62543;SDS011;48597;49.030;1.822;2023-05-19T02:09:15;3.55;;;1.95;;
62543;SDS011;48597;49.030;1.822;2023-05-19T02:17:39;1.48;;;1.38;;
62543;SDS011;48597;49.030;1.822;2023-05-19T02:20:07;3.30;;;1.73;;
62543;SDS011;48597;49.030;1.822;2023-05-19T02:22:33;2.35;;;1.90;;
62543;SDS011;48597;49.030;1.822;2023-05-19T02:24:58;3.45;;;1.85;;
62543;SDS011;48597;49.030;1.822;2023-05-19T02:27:24;2.05;;;1.50;;
62543;SDS011;48597;49.030;1.822;2023-05-19T02:29:50;3.13;;;1.80;;
62543;SDS011;48597;49.030;1.822;2023-05-19T02:32:16;3.28;;;1.77;;
62543;SDS011;48597;49.030;1.822;2023-05-19T02:34:42;3.22;;;1.70;;
62543;SDS011;48597;49.030;1.822;2023-05-19T02:37:09;2.33;;;1.70;;
62543;SDS011;48597;49.030;1.822;2023-05-19T02:39:37;2.63;;;1.65;;
62543;SDS011;48597;49.030;1.822;2023-05-19T02:42:03;2.65;;;1.63;;
62543;SDS011;48597;49.030;1.822;2023-05-19T02:44:28;2.85;;;1.77;;
62543;SDS011;48597;49.030;1.822;2023-05-19T02:46:54;2.58;;;2.00;;
62543;SDS011;48597;49.030;1.822;2023-05-19T02:49:19;2.63;;;1.90;;
62543;SDS011;48597;49.030;1.822;2023-05-19T02:51:44;4.35;;;1.88;;
62543;SDS011;48597;49.030;1.822;2023-05-19T02:54:10;2.55;;;1.77;;
62543;SDS011;48597;49.030;1.822;2023-05-19T02:56:35;3.05;;;1.92;;
62543;SDS011;48597;49.030;1.822;2023-05-19T02:59:00;2.38;;;1.70;;
62543;SDS011;48597;49.030;1.822;2023-05-19T03:01:26;2.13;;;1.80;;
62543;SDS011;48597;49.030;1.822;2023-05-19T03:03:51;2.67;;;1.60;;
62543;SDS011;48597;49.030;1.822;2023-05-19T03:06:17;2.50;;;1.60;;
62543;SDS011;48597;49.030;1.822;2023-05-19T03:08:42;2.20;;;1.60;;
62543;SDS011;48597;49.030;1.822;2023-05-19T03:11:08;3.10;;;1.98;;
62543;SDS011;48597;49.030;1.822;2023-05-19T03:13:34;2.38;;;1.63;;
62543;SDS011;48597;49.030;1.822;2023-05-19T03:15:59;1.80;;;1.70;;
62543;SDS011;48597;49.030;1.822;2023-05-19T03:18:26;2.25;;;1.60;;
62543;SDS011;48597;49.030;1.822;2023-05-19T03:20:51;3.42;;;1.80;;
62543;SDS011;48597;49.030;1.822;2023-05-19T03:23:18;3.92;;;1.83;;
62543;SDS011;48597;49.030;1.822;2023-05-19T03:25:44;2.38;;;1.95;;
62543;SDS011;48597;49.030;1.822;2023-05-19T03:28:10;2.10;;;1.58;;
62543;SDS011;48597;49.030;1.822;2023-05-19T03:30:35;2.40;;;1.63;;
62543;SDS011;48597;49.030;1.822;2023-05-19T03:33:01;2.20;;;1.80;;
62543;SDS011;48597;49.030;1.822;2023-05-19T03:35:26;2.30;;;1.60;;
62543;SDS011;48597;49.030;1.822;2023-05-19T03:37:52;3.72;;;1.77;;
62543;SDS011;48597;49.030;1.822;2023-05-19T03:40:18;2.33;;;1.65;;
62543;SDS011;48597;49.030;1.822;2023-05-19T03:42:43;2.20;;;1.65;;
62543;SDS011;48597;49.030;1.822;2023-05-19T03:45:08;2.75;;;1.63;;
62543;SDS011;48597;49.030;1.822;2023-05-19T03:47:34;2.40;;;1.70;;
62543;SDS011;48597;49.030;1.822;2023-05-19T03:50:00;2.38;;;1.60;;
62543;SDS011;48597;49.030;1.822;2023-05-19T03:52:26;2.72;;;1.80;;
62543;SDS011;48597;49.030;1.822;2023-05-19T03:54:51;2.55;;;1.60;;
62543;SDS011;48597;49.030;1.822;2023-05-19T03:57:17;2.65;;;2.05;;
62543;SDS011;48597;49.030;1.822;2023-05-19T03:59:42;1.77;;;1.60;;
62543;SDS011;48597;49.030;1.822;2023-05-19T04:02:07;2.15;;;1.58;;
62543;SDS011;48597;49.030;1.822;2023-05-19T04:04:33;2.75;;;1.73;;
62543;SDS011;48597;49.030;1.822;2023-05-19T04:06:58;1.83;;;1.67;;
62543;SDS011;48597;49.030;1.822;2023-05-19T04:09:24;3.65;;;1.70;;
62543;SDS011;48597;49.030;1.822;2023-05-19T04:11:49;1.90;;;1.60;;
62543;SDS011;48597;49.030;1.822;2023-05-19T04:14:15;3.22;;;2.00;;
62543;SDS011;48597;49.030;1.822;2023-05-19T04:16:40;3.03;;;1.85;;
62543;SDS011;48597;49.030;1.822;2023-05-19T04:19:06;3.50;;;1.70;;
62543;SDS011;48597;49.030;1.822;2023-05-19T04:21:31;3.15;;;1.80;;
62543;SDS011;48597;49.030;1.822;2023-05-19T04:23:56;2.38;;;1.60;;
62543;SDS011;48597;49.030;1.822;2023-05-19T04:26:24;1.73;;;1.55;;
62543;SDS011;48597;49.030;1.822;2023-05-19T04:28:51;2.10;;;1.75;;
62543;SDS011;48597;49.030;1.822;2023-05-19T04:31:17;1.95;;;1.60;;
62543;SDS011;48597;49.030;1.822;2023-05-19T04:33:45;3.72;;;1.65;;
62543;SDS011;48597;49.030;1.822;2023-05-19T04:36:12;2.10;;;1.60;;
62543;SDS011;48597;49.030;1.822;2023-05-19T04:38:38;2.55;;;1.73;;
62543;SDS011;48597;49.030;1.822;2023-05-19T04:41:04;2.55;;;1.60;;
62543;SDS011;48597;49.030;1.822;2023-05-19T04:43:30;1.88;;;1.70;;
62543;SDS011;48597;49.030;1.822;2023-05-19T04:45:55;3.00;;;1.90;;
62543;SDS011;48597;49.030;1.822;2023-05-19T04:48:22;2.75;;;1.50;;
62543;SDS011;48597;49.030;1.822;2023-05-19T04:50:48;2.08;;;1.60;;
62543;SDS011;48597;49.030;1.822;2023-05-19T04:53:15;3.10;;;1.70;;
62543;SDS011;48597;49.030;1.822;2023-05-19T04:55:41;2.10;;;1.52;;
62543;SDS011;48597;49.030;1.822;2023-05-19T04:58:07;2.67;;;1.85;;
62543;SDS011;48597;49.030;1.822;2023-05-19T05:00:32;3.25;;;1.80;;
62543;SDS011;48597;49.030;1.822;2023-05-19T05:02:59;2.72;;;1.50;;
62543;SDS011;48597;49.030;1.822;2023-05-19T05:05:29;1.92;;;1.50;;
62543;SDS011;48597;49.030;1.822;2023-05-19T05:07:55;4.32;;;1.80;;
62543;SDS011;48597;49.030;1.822;2023-05-19T05:10:21;3.63;;;1.55;;
62543;SDS011;48597;49.030;1.822;2023-05-19T05:12:47;2.03;;;1.70;;
62543;SDS011;48597;49.030;1.822;2023-05-19T05:15:13;2.10;;;1.60;;
62543;SDS011;48597;49.030;1.822;2023-05-19T05:17:38;2.13;;;1.50;;
62543;SDS011;48597;49.030;1.822;2023-05-19T05:20:04;2.13;;;1.75;;
62543;SDS011;48597;49.030;1.822;2023-05-19T05:22:30;2.95;;;1.80;;
62543;SDS011;48597;49.030;1.822;2023-05-19T05:24:56;2.42;;;1.65;;
62543;SDS011;48597;49.030;1.822;2023-05-19T05:27:22;2.45;;;1.58;;
62543;SDS011;48597;49.030;1.822;2023-05-19T05:29:47;2.40;;;1.70;;
62543;SDS011;48597;49.030;1.822;2023-05-19T05:32:13;1.40;;;1.30;;
62543;SDS011;48597;49.030;1.822;2023-05-19T05:34:40;1.92;;;1.48;;
62543;SDS011;48597;49.030;1.822;2023-05-19T05:37:06;1.55;;;1.42;;
62543;SDS011;48597;49.030;1.822;2023-05-19T05:39:32;1.55;;;1.45;;
62543;SDS011;48597;49.030;1.822;2023-05-19T05:41:57;2.42;;;1.70;;
62543;SDS011;48597;49.030;1.822;2023-05-19T05:44:22;1.75;;;1.30;;
62543;SDS011;48597;49.030;1.822;2023-05-19T05:46:48;1.65;;;1.55;;
62543;SDS011;48597;49.030;1.822;2023-05-19T05:49:13;1.92;;;1.50;;
62543;SDS011;48597;49.030;1.822;2023-05-19T05:51:39;4.10;;;1.58;;
62543;SDS011;48597;49.030;1.822;2023-05-19T05:54:05;1.48;;;1.38;;
62543;SDS011;48597;49.030;1.822;2023-05-19T05:56:31;4.00;;;1.88;;
62543;SDS011;48597;49.030;1.822;2023-05-19T05:58:58;3.55;;;1.40;;
62543;SDS011;48597;49.030;1.822;2023-05-19T06:01:23;2.20;;;1.40;;
62543;SDS011;48597;49.030;1.822;2023-05-19T06:03:50;1.58;;;1.33;;
62543;SDS011;48597;49.030;1.822;2023-05-19T06:06:15;2.03;;;1.40;;
62543;SDS011;48597;49.030;1.822;2023-05-19T06:08:40;2.35;;;1.63;;
62543;SDS011;48597;49.030;1.822;2023-05-19T06:11:07;1.90;;;1.48;;
62543;SDS011;48597;49.030;1.822;2023-05-19T06:13:36;1.60;;;1.35;;
62543;SDS011;48597;49.030;1.822;2023-05-19T06:16:02;1.75;;;1.25;;
62543;SDS011;48597;49.030;1.822;2023-05-19T06:18:29;3.35;;;1.63;;
62543;SDS011;48597;49.030;1.822;2023-05-19T06:20:54;1.92;;;1.48;;
62543;SDS011;48597;49.030;1.822;2023-05-19T06:23:20;1.92;;;1.40;;
62543;SDS011;48597;49.030;1.822;2023-05-19T06:25:45;1.63;;;1.30;;
62543;SDS011;48597;49.030;1.822;2023-05-19T06:28:11;2.08;;;1.33;;
62543;SDS011;48597;49.030;1.822;2023-05-19T06:30:36;1.85;;;1.50;;
62543;SDS011;48597;49.030;1.822;2023-05-19T06:33:02;1.80;;;1.48;;
62543;SDS011;48597;49.030;1.822;2023-05-19T06:35:27;1.48;;;1.23;;
62543;SDS011;48597;49.030;1.822;2023-05-19T06:37:53;2.10;;;1.30;;
62543;SDS011;48597;49.030;1.822;2023-05-19T06:40:20;2.00;;;1.30;;
62543;SDS011;48597;49.030;1.822;2023-05-19T06:42:46;2.67;;;1.20;;
62543;SDS011;48597;49.030;1.822;2023-05-19T06:45:11;1.83;;;1.20;;
62543;SDS011;48597;49.030;1.822;2023-05-19T06:47:36;2.08;;;1.40;;
62543;SDS011;48597;49.030;1.822;2023-05-19T06:50:02;2.15;;;1.17;;
62543;SDS011;48597;49.030;1.822;2023-05-19T06:52:28;1.63;;;1.33;;
62543;SDS011;48597;49.030;1.822;2023-05-19T06:54:53;2.25;;;1.40;;
62543;SDS011;48597;49.030;1.822;2023-05-19T06:57:18;1.90;;;1.20;;
62543;SDS011;48597;49.030;1.822;2023-05-19T06:59:44;1.77;;;1.40;;
62543;SDS011;48597;49.030;1.822;2023-05-19T07:02:10;2.70;;;1.48;;
62543;SDS011;48597;49.030;1.822;2023-05-19T07:04:36;2.53;;;1.45;;
62543;SDS011;48597;49.030;1.822;2023-05-19T07:07:01;1.50;;;1.40;;
62543;SDS011;48597;49.030;1.822;2023-05-19T07:09:27;1.40;;;1.30;;
62543;SDS011;48597;49.030;1.822;2023-05-19T07:11:52;2.75;;;1.33;;
62543;SDS011;48597;49.030;1.822;2023-05-19T07:14:20;1.88;;;1.30;;
62543;SDS011;48597;49.030;1.822;2023-05-19T07:16:46;1.35;;;1.23;;
62543;SDS011;48597;49.030;1.822;2023-05-19T07:19:11;2.30;;;1.25;;
62543;SDS011;48597;49.030;1.822;2023-05-19T07:21:37;2.67;;;1.50;;
62543;SDS011;48597;49.030;1.822;2023-05-19T07:24:02;1.98;;;1.27;;
62543;SDS011;48597;49.030;1.822;2023-05-19T07:26:28;1.90;;;1.40;;
62543;SDS011;48597;49.030;1.822;2023-05-19T07:28:53;1.52;;;1.30;;
62543;SDS011;48597;49.030;1.822;2023-05-19T07:31:19;1.75;;;1.20;;
62543;SDS011;48597;49.030;1.822;2023-05-19T07:33:44;1.40;;;1.30;;
62543;SDS011;48597;49.030;1.822;2023-05-19T07:36:10;1.67;;;1.20;;
62543;SDS011;48597;49.030;1.822;2023-05-19T07:38:35;1.98;;;1.40;;
62543;SDS011;48597;49.030;1.822;2023-05-19T07:41:01;1.77;;;1.33;;
62543;SDS011;48597;49.030;1.822;2023-05-19T07:43:27;1.55;;;1.45;;
62543;SDS011;48597;49.030;1.822;2023-05-19T07:45:52;1.77;;;1.25;;
62543;SDS011;48597;49.030;1.822;2023-05-19T07:48:20;2.25;;;1.30;;
62543;SDS011;48597;49.030;1.822;2023-05-19T07:50:47;1.40;;;1.30;;
62543;SDS011;48597;49.030;1.822;2023-05-19T07:53:12;1.50;;;1.40;;
62543;SDS011;48597;49.030;1.822;2023-05-19T07:55:38;2.10;;;1.25;;
62543;SDS011;48597;49.030;1.822;2023-05-19T07:58:03;2.45;;;1.40;;
62543;SDS011;48597;49.030;1.822;2023-05-19T08:00:29;2.13;;;1.48;;
62543;SDS011;48597;49.030;1.822;2023-05-19T08:02:54;1.70;;;1.40;;
62543;SDS011;48597;49.030;1.822;2023-05-19T08:05:21;2.22;;;1.38;;
62543;SDS011;48597;49.030;1.822;2023-05-19T08:07:47;1.63;;;1.40;;
62543;SDS011;48597;49.030;1.822;2023-05-19T08:10:12;1.60;;;1.40;;
62543;SDS011;48597;49.030;1.822;2023-05-19T08:12:38;4.15;;;1.35;;
62543;SDS011;48597;49.030;1.822;2023-05-19T08:15:03;2.78;;;1.40;;
62543;SDS011;48597;49.030;1.822;2023-05-19T08:17:29;1.67;;;1.50;;
62543;SDS011;48597;49.030;1.822;2023-05-19T08:19:54;1.70;;;1.20;;
62543;SDS011;48597;49.030;1.822;2023-05-19T08:22:20;1.98;;;1.40;;
62543;SDS011;48597;49.030;1.822;2023-05-19T08:24:45;1.98;;;1.50;;
62543;SDS011;48597;49.030;1.822;2023-05-19T08:27:13;1.95;;;1.30;;
62543;SDS011;48597;49.030;1.822;2023-05-19T08:29:39;1.83;;;1.40;;
62543;SDS011;48597;49.030;1.822;2023-05-19T08:32:05;2.35;;;1.55;;
62543;SDS011;48597;49.030;1.822;2023-05-19T08:34:30;1.90;;;1.33;;
62543;SDS011;48597;49.030;1.822;2023-05-19T08:36:56;1.80;;;1.40;;
62543;SDS011;48597;49.030;1.822;2023-05-19T08:39:22;2.20;;;1.50;;
62543;SDS011;48597;49.030;1.822;2023-05-19T08:41:51;1.80;;;1.60;;
62543;SDS011;48597;49.030;1.822;2023-05-19T08:44:17;2.45;;;1.50;;
62543;SDS011;48597;49.030;1.822;2023-05-19T08:46:43;1.90;;;1.40;;
62543;SDS011;48597;49.030;1.822;2023-05-19T08:49:10;1.73;;;1.50;;
62543;SDS011;48597;49.030;1.822;2023-05-19T08:54:15;2.78;;;1.40;;
62543;SDS011;48597;49.030;1.822;2023-05-19T08:56:42;1.98;;;1.30;;
62543;SDS011;48597;49.030;1.822;2023-05-19T08:59:09;1.60;;;1.30;;
62543;SDS011;48597;49.030;1.822;2023-05-19T09:01:35;1.50;;;1.40;;
62543;SDS011;48597;49.030;1.822;2023-05-19T09:04:01;1.73;;;1.30;;
62543;SDS011;48597;49.030;1.822;2023-05-19T09:06:28;2.00;;;1.60;;
62543;SDS011;48597;49.030;1.822;2023-05-19T09:08:56;3.03;;;1.50;;
62543;SDS011;48597;49.030;1.822;2023-05-19T09:11:21;2.42;;;1.55;;
62543;SDS011;48597;49.030;1.822;2023-05-19T09:13:47;1.77;;;1.45;;
62543;SDS011;48597;49.030;1.822;2023-05-19T09:16:13;3.90;;;1.50;;
62543;SDS011;48597;49.030;1.822;2023-05-19T09:18:39;4.35;;;1.60;;
62543;SDS011;48597;49.030;1.822;2023-05-19T09:21:05;2.05;;;1.42;;
62543;SDS011;48597;49.030;1.822;2023-05-19T09:23:31;3.30;;;1.40;;
62543;SDS011;48597;49.030;1.822;2023-05-19T09:26:03;1.98;;;1.65;;
62543;SDS011;48597;49.030;1.822;2023-05-19T09:28:31;3.95;;;1.50;;
62543;SDS011;48597;49.030;1.822;2023-05-19T09:30:58;1.95;;;1.58;;
62543;SDS011;48597;49.030;1.822;2023-05-19T09:33:28;2.75;;;1.50;;
62543;SDS011;48597;49.030;1.822;2023-05-19T09:35:55;2.90;;;1.48;;
62543;SDS011;48597;49.030;1.822;2023-05-19T09:38:22;1.83;;;1.50;;
62543;SDS011;48597;49.030;1.822;2023-05-19T09:40:48;1.92;;;1.60;;
62543;SDS011;48597;49.030;1.822;2023-05-19T09:43:14;1.60;;;1.50;;
62543;SDS011;48597;49.030;1.822;2023-05-19T09:45:40;1.38;;;1.20;;
62543;SDS011;48597;49.030;1.822;2023-05-19T09:48:06;1.70;;;1.40;;
62543;SDS011;48597;49.030;1.822;2023-05-19T09:50:31;2.65;;;1.70;;
62543;SDS011;48597;49.030;1.822;2023-05-19T09:52:57;2.55;;;1.33;;
62543;SDS011;48597;49.030;1.822;2023-05-19T09:55:29;2.55;;;1.48;;
62543;SDS011;48597;49.030;1.822;2023-05-19T09:57:56;1.95;;;1.50;;
62543;SDS011;48597;49.030;1.822;2023-05-19T10:00:23;3.03;;;1.42;;
62543;SDS011;48597;49.030;1.822;2023-05-19T10:02:51;1.60;;;1.38;;
62543;SDS011;48597;49.030;1.822;2023-05-19T10:05:17;1.70;;;1.42;;
62543;SDS011;48597;49.030;1.822;2023-05-19T10:07:45;2.00;;;1.58;;
62543;SDS011;48597;49.030;1.822;2023-05-19T10:10:14;3.90;;;1.60;;
62543;SDS011;48597;49.030;1.822;2023-05-19T10:12:40;2.33;;;1.67;;
62543;SDS011;48597;49.030;1.822;2023-05-19T10:15:07;2.42;;;1.40;;
62543;SDS011;48597;49.030;1.822;2023-05-19T10:17:34;3.92;;;1.80;;
62543;SDS011;48597;49.030;1.822;2023-05-19T10:20:02;3.05;;;1.50;;
62543;SDS011;48597;49.030;1.822;2023-05-19T10:22:28;2.92;;;1.45;;
62543;SDS011;48597;49.030;1.822;2023-05-19T10:24:54;1.88;;;1.40;;
62543;SDS011;48597;49.030;1.822;2023-05-19T10:27:19;2.92;;;1.50;;
62543;SDS011;48597;49.030;1.822;2023-05-19T10:29:47;1.70;;;1.30;;
62543;SDS011;48597;49.030;1.822;2023-05-19T10:32:16;1.55;;;1.30;;
62543;SDS011;48597;49.030;1.822;2023-05-19T10:39:53;1.92;;;1.40;;
62543;SDS011;48597;49.030;1.822;2023-05-19T10:45:22;3.35;;;1.48;;
62543;SDS011;48597;49.030;1.822;2023-05-19T10:47:51;1.63;;;1.50;;
62543;SDS011;48597;49.030;1.822;2023-05-19T10:50:18;1.58;;;1.48;;
62543;SDS011;48597;49.030;1.822;2023-05-19T10:52:44;1.85;;;1.60;;
62543;SDS011;48597;49.030;1.822;2023-05-19T10:55:43;2.33;;;1.50;;
62543;SDS011;48597;49.030;1.822;2023-05-19T11:01:13;2.05;;;1.50;;
62543;SDS011;48597;49.030;1.822;2023-05-19T11:04:04;1.77;;;1.50;;
62543;SDS011;48597;49.030;1.822;2023-05-19T11:06:30;2.53;;;1.30;;
62543;SDS011;48597;49.030;1.822;2023-05-19T11:14:17;2.08;;;1.50;;
62543;SDS011;48597;49.030;1.822;2023-05-19T11:17:06;1.50;;;1.30;;
62543;SDS011;48597;49.030;1.822;2023-05-19T11:19:36;2.28;;;1.40;;
62543;SDS011;48597;49.030;1.822;2023-05-19T11:22:09;2.28;;;1.50;;
62543;SDS011;48597;49.030;1.822;2023-05-19T11:24:36;3.20;;;1.40;;
62543;SDS011;48597;49.030;1.822;2023-05-19T11:30:00;2.08;;;1.42;;
62543;SDS011;48597;49.030;1.822;2023-05-19T11:32:29;2.72;;;1.50;;
62543;SDS011;48597;49.030;1.822;2023-05-19T11:34:57;1.58;;;1.42;;
62543;SDS011;48597;49.030;1.822;2023-05-19T11:37:23;2.55;;;1.30;;
62543;SDS011;48597;49.030;1.822;2023-05-19T11:39:48;1.67;;;1.27;;
62543;SDS011;48597;49.030;1.822;2023-05-19T11:42:14;1.63;;;1.48;;
62543;SDS011;48597;49.030;1.822;2023-05-19T11:44:40;1.40;;;1.30;;
62543;SDS011;48597;49.030;1.822;2023-05-19T11:47:09;1.75;;;1.50;;
62543;SDS011;48597;49.030;1.822;2023-05-19T11:49:35;1.73;;;1.20;;
62543;SDS011;48597;49.030;1.822;2023-05-19T11:52:01;2.70;;;1.52;;
62543;SDS011;48597;49.030;1.822;2023-05-19T11:54:28;1.77;;;1.48;;
62543;SDS011;48597;49.030;1.822;2023-05-19T11:57:01;2.35;;;1.40;;
62543;SDS011;48597;49.030;1.822;2023-05-19T11:59:31;1.65;;;1.45;;
62543;SDS011;48597;49.030;1.822;2023-05-19T12:01:59;1.50;;;1.40;;
62543;SDS011;48597;49.030;1.822;2023-05-19T12:04:27;1.73;;;1.27;;
62543;SDS011;48597;49.030;1.822;2023-05-19T12:06:52;1.40;;;1.30;;
62543;SDS011;48597;49.030;1.822;2023-05-19T12:09:18;3.35;;;1.50;;
62543;SDS011;48597;49.030;1.822;2023-05-19T12:11:46;2.45;;;1.40;;
62543;SDS011;48597;49.030;1.822;2023-05-19T12:14:11;1.85;;;1.33;;
62543;SDS011;48597;49.030;1.822;2023-05-19T12:16:37;1.77;;;1.50;;
62543;SDS011;48597;49.030;1.822;2023-05-19T12:19:05;1.45;;;1.35;;
62543;SDS011;48597;49.030;1.822;2023-05-19T12:21:31;1.90;;;1.42;;
62543;SDS011;48597;49.030;1.822;2023-05-19T12:23:57;1.75;;;1.48;;
62543;SDS011;48597;49.030;1.822;2023-05-19T12:26:23;1.88;;;1.40;;
62543;SDS011;48597;49.030;1.822;2023-05-19T12:28:49;1.42;;;1.30;;
62543;SDS011;48597;49.030;1.822;2023-05-19T12:31:16;1.38;;;1.27;;
62543;SDS011;48597;49.030;1.822;2023-05-19T12:33:42;1.65;;;1.30;;
62543;SDS011;48597;49.030;1.822;2023-05-19T12:36:09;2.47;;;1.50;;
62543;SDS011;48597;49.030;1.822;2023-05-19T12:38:37;2.30;;;1.38;;
62543;SDS011;48597;49.030;1.822;2023-05-19T12:41:03;1.52;;;1.42;;
62543;SDS011;48597;49.030;1.822;2023-05-19T12:43:33;2.33;;;1.45;;
62543;SDS011;48597;49.030;1.822;2023-05-19T12:46:08;2.42;;;1.50;;
62543;SDS011;48597;49.030;1.822;2023-05-19T12:48:34;1.30;;;1.20;;
62543;SDS011;48597;49.030;1.822;2023-05-19T12:51:00;2.63;;;1.50;;
62543;SDS011;48597;49.030;1.822;2023-05-19T12:53:25;2.28;;;1.33;;
62543;SDS011;48597;49.030;1.822;2023-05-19T12:55:52;1.83;;;1.48;;
62543;SDS011;48597;49.030;1.822;2023-05-19T12:58:17;1.42;;;1.33;;
62543;SDS011;48597;49.030;1.822;2023-05-19T13:00:43;2.45;;;1.50;;
62543;SDS011;48597;49.030;1.822;2023-05-19T13:03:14;1.88;;;1.33;;
62543;SDS011;48597;49.030;1.822;2023-05-19T13:05:42;1.50;;;1.40;;
62543;SDS011;48597;49.030;1.822;2023-05-19T13:08:20;1.55;;;1.45;;
62543;SDS011;48597;49.030;1.822;2023-05-19T13:10:48;1.95;;;1.35;;
62543;SDS011;48597;49.030;1.822;2023-05-19T13:13:14;2.08;;;1.40;;
62543;SDS011;48597;49.030;1.822;2023-05-19T13:15:44;3.58;;;1.45;;
62543;SDS011;48597;49.030;1.822;2023-05-19T13:18:12;3.30;;;1.40;;
62543;SDS011;48597;49.030;1.822;2023-05-19T13:20:38;1.92;;;1.50;;
62543;SDS011;48597;49.030;1.822;2023-05-19T13:23:05;1.45;;;1.35;;
62543;SDS011;48597;49.030;1.822;2023-05-19T13:25:32;1.88;;;1.42;;
62543;SDS011;48597;49.030;1.822;2023-05-19T13:27:58;4.15;;;1.50;;
62543;SDS011;48597;49.030;1.822;2023-05-19T13:30:25;1.67;;;1.30;;
62543;SDS011;48597;49.030;1.822;2023-05-19T13:32:51;1.77;;;1.30;;
62543;SDS011;48597;49.030;1.822;2023-05-19T13:35:17;2.35;;;1.50;;
62543;SDS011;48597;49.030;1.822;2023-05-19T13:37:42;1.70;;;1.42;;
62543;SDS011;48597;49.030;1.822;2023-05-19T13:40:08;2.05;;;1.30;;
62543;SDS011;48597;49.030;1.822;2023-05-19T13:42:34;1.73;;;1.35;;
62543;SDS011;48597;49.030;1.822;2023-05-19T13:45:00;2.53;;;1.55;;
62543;SDS011;48597;49.030;1.822;2023-05-19T13:47:26;1.70;;;1.30;;
62543;SDS011;48597;49.030;1.822;2023-05-19T13:49:51;1.83;;;1.40;;
62543;SDS011;48597;49.030;1.822;2023-05-19T13:52:17;1.73;;;1.33;;
62543;SDS011;48597;49.030;1.822;2023-05-19T13:54:44;2.03;;;1.33;;
62543;SDS011;48597;49.030;1.822;2023-05-19T13:57:10;2.80;;;1.58;;
62543;SDS011;48597;49.030;1.822;2023-05-19T13:59:35;1.77;;;1.48;;
62543;SDS011;48597;49.030;1.822;2023-05-19T14:02:01;2.45;;;1.40;;
62543;SDS011;48597;49.030;1.822;2023-05-19T14:04:26;1.40;;;1.30;;
62543;SDS011;48597;49.030;1.822;2023-05-19T14:06:52;2.03;;;1.50;;
62543;SDS011;48597;49.030;1.822;2023-05-19T14:09:18;2.67;;;1.83;;
62543;SDS011;48597;49.030;1.822;2023-05-19T14:11:45;3.63;;;1.60;;
62543;SDS011;48597;49.030;1.822;2023-05-19T14:14:11;2.33;;;1.52;;
62543;SDS011;48597;49.030;1.822;2023-05-19T14:16:36;1.77;;;1.58;;
62543;SDS011;48597;49.030;1.822;2023-05-19T14:19:02;2.83;;;1.38;;
62543;SDS011;48597;49.030;1.822;2023-05-19T14:21:27;2.35;;;1.65;;
62543;SDS011;48597;49.030;1.822;2023-05-19T14:23:53;1.60;;;1.40;;
62543;SDS011;48597;49.030;1.822;2023-05-19T14:26:18;1.50;;;1.40;;
62543;SDS011;48597;49.030;1.822;2023-05-19T14:28:44;2.13;;;1.60;;
62543;SDS011;48597;49.030;1.822;2023-05-19T14:31:12;2.38;;;1.50;;
62543;SDS011;48597;49.030;1.822;2023-05-19T14:33:41;1.85;;;1.75;;
62543;SDS011;48597;49.030;1.822;2023-05-19T14:36:07;1.70;;;1.52;;
62543;SDS011;48597;49.030;1.822;2023-05-19T14:38:33;2.85;;;1.63;;
62543;SDS011;48597;49.030;1.822;2023-05-19T14:40:59;1.98;;;1.33;;
62543;SDS011;48597;49.030;1.822;2023-05-19T14:43:24;1.63;;;1.30;;
62543;SDS011;48597;49.030;1.822;2023-05-19T14:45:50;1.35;;;1.20;;
62543;SDS011;48597;49.030;1.822;2023-05-19T14:48:15;1.98;;;1.33;;
62543;SDS011;48597;49.030;1.822;2023-05-19T14:50:41;1.83;;;1.63;;
62543;SDS011;48597;49.030;1.822;2023-05-19T14:53:06;2.03;;;1.58;;
62543;SDS011;48597;49.030;1.822;2023-05-19T14:55:32;2.35;;;1.30;;
62543;SDS011;48597;49.030;1.822;2023-05-19T14:57:57;2.28;;;1.40;;
62543;SDS011;48597;49.030;1.822;2023-05-19T15:00:23;2.22;;;1.40;;
62543;SDS011;48597;49.030;1.822;2023-05-19T15:02:51;1.52;;;1.27;;
62543;SDS011;48597;49.030;1.822;2023-05-19T15:05:17;2.03;;;1.38;;
62543;SDS011;48597;49.030;1.822;2023-05-19T15:07:43;3.17;;;1.40;;
62543;SDS011;48597;49.030;1.822;2023-05-19T15:10:08;1.38;;;1.20;;
62543;SDS011;48597;49.030;1.822;2023-05-19T15:12:34;1.48;;;1.38;;
62543;SDS011;48597;49.030;1.822;2023-05-19T15:14:59;1.90;;;1.42;;
62543;SDS011;48597;49.030;1.822;2023-05-19T15:17:25;1.98;;;1.27;;
62543;SDS011;48597;49.030;1.822;2023-05-19T15:19:50;1.85;;;1.50;;
62543;SDS011;48597;49.030;1.822;2023-05-19T15:22:15;1.60;;;1.40;;